Time;durP1;ratioP1;P1;durP2;ratioP2;P2;SDS_P1;SDS_P2;PMS_P1;PMS_P2;Temp;Humidity;BMP_temperature;BMP_pressure;BME280_temperature;BME280_humidity;BME280_pressure;Samples;Min_cycle;Max_cycle;Signal;HPM_P1;HPM_P2
2023/06/10 00:01:55;;;;;;;6.68;5.63;;;22.20;99.90;;;;;;5032288;28;20041;-72
2023/06/10 00:04:22;;;;;;;6.72;5.82;;;22.20;99.90;;;;;;5032063;28;20033;-72
2023/06/10 00:06:49;;;;;;;6.30;5.70;;;22.40;99.90;;;;;;5031568;28;20040;-71
2023/06/10 00:09:15;;;;;;;8.88;6.05;;;22.40;99.90;;;;;;5031612;28;20044;-72
2023/06/10 00:11:42;;;;;;;5.80;5.30;;;22.40;99.90;;;;;;5031560;28;20033;-72
2023/06/10 00:14:08;;;;;;;6.43;5.93;;;22.40;99.90;;;;;;5030997;28;20485;-72
2023/06/10 00:16:34;;;;;;;7.53;5.82;;;22.40;99.90;;;;;;5030880;28;20041;-72
2023/06/10 00:19:00;;;;;;;7.47;6.07;;;22.40;99.90;;;;;;5031583;28;20017;-72
2023/06/10 00:21:37;;;;;;;7.30;5.95;;;22.40;99.90;;;;;;5031404;28;20048;-72
2023/06/10 00:24:05;;;;;;;7.07;6.38;;;22.40;99.90;;;;;;5032393;28;20380;-71
2023/06/10 00:26:32;;;;;;;7.43;6.25;;;22.30;99.90;;;;;;5030638;28;20429;-72
2023/06/10 00:28:58;;;;;;;6.15;5.55;;;22.00;99.90;;;;;;5031431;28;20029;-72
2023/06/10 00:31:26;;;;;;;7.20;6.10;;;21.90;99.90;;;;;;5030617;28;20039;-72
2023/06/10 00:33:52;;;;;;;7.88;6.28;;;21.90;99.90;;;;;;5031484;28;20462;-72
2023/06/10 00:36:18;;;;;;;6.07;5.47;;;22.10;99.90;;;;;;5030514;28;20029;-72
2023/06/10 00:38:44;;;;;;;7.40;5.80;;;22.20;99.90;;;;;;5047827;28;20029;-72
2023/06/10 00:41:11;;;;;;;9.13;6.05;;;22.10;99.90;;;;;;5032254;28;20034;-73
2023/06/10 00:43:37;;;;;;;8.52;6.55;;;21.90;99.90;;;;;;5031294;28;20513;-72
2023/06/10 00:46:03;;;;;;;8.40;6.55;;;21.40;99.90;;;;;;5031772;28;20041;-72
2023/06/10 00:48:29;;;;;;;7.03;6.45;;;21.30;99.90;;;;;;5045011;28;20044;-72
2023/06/10 00:50:55;;;;;;;7.47;6.78;;;21.10;99.90;;;;;;5060133;28;20037;-73
2023/06/10 00:53:22;;;;;;;9.95;6.53;;;21.20;99.90;;;;;;5047816;28;20045;-72
2023/06/10 00:55:48;;;;;;;9.57;6.50;;;21.30;99.90;;;;;;5063879;28;20036;-72
2023/06/10 00:58:14;;;;;;;6.68;5.90;;;21.50;99.90;;;;;;5047538;28;20378;-72
2023/06/10 01:00:40;;;;;;;6.88;6.18;;;21.40;99.90;;;;;;5046209;28;20040;-72
2023/06/10 01:03:07;;;;;;;10.73;6.25;;;21.50;99.90;;;;;;5031012;28;20683;-72
2023/06/10 01:05:37;;;;;;;8.20;6.05;;;21.60;99.90;;;;;;5031628;28;20497;-72
2023/06/10 01:08:31;;;;;;;10.48;6.70;;;21.70;99.90;;;;;;5031198;28;20026;-71
2023/06/10 01:11:00;;;;;;;7.78;6.68;;;21.80;99.90;;;;;;5031774;28;20042;-72
2023/06/10 01:13:28;;;;;;;7.38;6.78;;;21.80;99.90;;;;;;5030907;28;20042;-72
2023/06/10 01:15:56;;;;;;;7.72;6.80;;;21.90;99.90;;;;;;5030318;28;20037;-72
2023/06/10 01:18:22;;;;;;;7.80;7.07;;;21.90;99.90;;;;;;5014274;28;20034;-72
2023/06/10 01:20:48;;;;;;;7.93;7.10;;;21.80;99.90;;;;;;5031448;28;20029;-72
2023/06/10 01:23:15;;;;;;;8.45;7.13;;;21.60;99.90;;;;;;5032092;28;20026;-72
2023/06/10 01:26:00;;;;;;;11.40;7.80;;;21.40;99.90;;;;;;5059970;28;20057;-72
2023/06/10 01:28:49;;;;;;;8.32;7.28;;;21.30;99.90;;;;;;5014940;28;20030;-72
2023/06/10 01:31:17;;;;;;;10.38;6.93;;;21.40;99.90;;;;;;5024770;28;20033;-72
2023/06/10 01:33:46;;;;;;;6.93;6.32;;;21.40;99.90;;;;;;5051337;28;20041;-72
2023/06/10 01:36:12;;;;;;;8.10;6.57;;;21.40;99.90;;;;;;5067162;28;20025;-72
2023/06/10 01:38:45;;;;;;;7.32;6.63;;;21.30;99.90;;;;;;5051277;28;20025;-72
2023/06/10 01:41:16;;;;;;;7.60;6.90;;;21.40;99.90;;;;;;5050729;28;20032;-72
2023/06/10 01:43:43;;;;;;;7.78;7.03;;;21.40;99.90;;;;;;5067844;28;20104;-72
2023/06/10 01:46:09;;;;;;;8.00;6.30;;;21.40;99.90;;;;;;5050032;28;20033;-72
2023/06/10 01:48:37;;;;;;;7.18;6.57;;;21.60;99.90;;;;;;5062436;28;20453;-72
2023/06/10 01:51:03;;;;;;;7.45;6.75;;;21.60;99.90;;;;;;5017205;28;20041;-72
2023/06/10 01:53:29;;;;;;;7.68;6.97;;;21.70;99.90;;;;;;5034346;28;20041;-72
2023/06/10 01:55:55;;;;;;;8.65;7.30;;;21.80;99.90;;;;;;5033989;28;20458;-72
2023/06/10 01:58:22;;;;;;;8.23;7.03;;;21.80;99.90;;;;;;5035391;28;20037;-72
2023/06/10 02:00:48;;;;;;;10.15;7.80;;;21.70;99.90;;;;;;5034076;28;20042;-72
2023/06/10 02:03:14;;;;;;;9.23;8.00;;;21.60;99.90;;;;;;5026936;28;20074;-72
2023/06/10 02:05:40;;;;;;;9.20;8.30;;;21.70;99.90;;;;;;5027153;28;20390;-72
2023/06/10 02:08:06;;;;;;;9.68;7.82;;;21.70;99.90;;;;;;5024725;28;20041;-73
2023/06/10 02:10:32;;;;;;;10.43;8.35;;;21.70;99.90;;;;;;5025267;28;20680;-73
2023/06/10 02:12:58;;;;;;;8.73;7.63;;;21.70;99.90;;;;;;5032226;28;20041;-72
2023/06/10 02:15:24;;;;;;;8.65;7.30;;;21.70;99.90;;;;;;5014958;28;20033;-72
2023/06/10 02:17:50;;;;;;;8.35;7.55;;;21.70;99.90;;;;;;5033129;28;20033;-72
2023/06/10 02:20:16;;;;;;;8.32;7.47;;;21.80;99.90;;;;;;5031231;28;20052;-72
2023/06/10 02:22:43;;;;;;;10.13;7.05;;;21.80;99.90;;;;;;5048803;28;20037;-72
2023/06/10 02:25:09;;;;;;;9.40;6.85;;;21.90;99.90;;;;;;5033064;28;20045;-72
2023/06/10 02:27:35;;;;;;;9.68;7.22;;;21.90;99.90;;;;;;5032215;28;20474;-72
2023/06/10 02:30:01;;;;;;;8.43;7.55;;;21.90;99.90;;;;;;5033476;28;20033;-72
2023/06/10 02:32:28;;;;;;;8.55;6.90;;;21.90;99.90;;;;;;5030359;28;20050;-72
2023/06/10 02:34:54;;;;;;;11.75;7.82;;;21.90;99.90;;;;;;5032064;28;20026;-72
2023/06/10 02:37:20;;;;;;;8.90;7.78;;;21.90;99.90;;;;;;5033095;28;20033;-72
2023/06/10 02:39:46;;;;;;;10.07;7.85;;;21.90;99.90;;;;;;5033435;28;20048;-72
2023/06/10 02:42:12;;;;;;;10.48;8.38;;;22.00;99.90;;;;;;5046842;28;20030;-72
2023/06/10 02:44:39;;;;;;;13.68;7.85;;;22.00;99.90;;;;;;5050009;28;20021;-72
2023/06/10 02:47:05;;;;;;;8.00;7.20;;;22.00;99.90;;;;;;5034444;28;20061;-72
2023/06/10 02:49:31;;;;;;;9.75;8.23;;;22.00;99.90;;;;;;5054416;28;20385;-72
2023/06/10 02:51:58;;;;;;;9.30;8.32;;;22.00;99.90;;;;;;5037914;28;20041;-72
2023/06/10 02:54:24;;;;;;;9.45;7.75;;;22.00;99.90;;;;;;5034394;28;20033;-72
2023/06/10 02:56:51;;;;;;;9.02;8.05;;;22.00;99.90;;;;;;5032704;28;20040;-72
2023/06/10 02:59:17;;;;;;;9.20;8.30;;;22.00;99.90;;;;;;5032865;28;20041;-72
2023/06/10 03:01:43;;;;;;;10.65;8.80;;;22.00;99.90;;;;;;5031467;28;20048;-72
2023/06/10 03:04:12;;;;;;;10.27;8.90;;;22.00;99.90;;;;;;5033077;28;20490;-72
2023/06/10 03:06:40;;;;;;;9.95;8.52;;;22.00;99.90;;;;;;5034141;28;20029;-72
2023/06/10 03:09:10;;;;;;;10.52;9.43;;;22.00;99.90;;;;;;5033139;28;20032;-72
2023/06/10 03:11:36;;;;;;;13.07;9.65;;;22.00;99.90;;;;;;5032889;28;20034;-72
2023/06/10 03:14:02;;;;;;;9.32;8.43;;;22.00;99.90;;;;;;5034033;28;20053;-72
2023/06/10 03:16:30;;;;;;;11.05;9.10;;;22.00;99.90;;;;;;5031646;28;20565;-72
2023/06/10 03:18:56;;;;;;;11.23;9.70;;;22.00;99.90;;;;;;5032648;28;20034;-72
2023/06/10 03:21:22;;;;;;;11.10;10.00;;;22.10;99.90;;;;;;5032621;28;20474;-72
2023/06/10 03:23:48;;;;;;;14.75;10.80;;;22.00;99.90;;;;;;5016303;28;20038;-72
2023/06/10 03:26:15;;;;;;;12.35;10.25;;;22.00;99.90;;;;;;5033508;28;20026;-72
2023/06/10 03:28:41;;;;;;;11.85;9.57;;;21.90;99.90;;;;;;5034009;28;20036;-72
2023/06/10 03:31:07;;;;;;;12.10;10.25;;;21.90;99.90;;;;;;5031370;28;20038;-72
2023/06/10 03:33:34;;;;;;;13.43;9.48;;;21.90;99.90;;;;;;5015987;28;20037;-72
2023/06/10 03:36:00;;;;;;;9.93;8.95;;;21.90;99.90;;;;;;5033646;28;20038;-72
2023/06/10 03:38:26;;;;;;;10.35;9.27;;;22.00;99.90;;;;;;5033596;28;20056;-72
2023/06/10 03:40:52;;;;;;;11.85;10.07;;;22.00;99.90;;;;;;5065137;28;20025;-72
2023/06/10 03:43:18;;;;;;;11.50;9.88;;;22.00;99.90;;;;;;5033538;28;20045;-72
2023/06/10 03:45:45;;;;;;;11.13;9.48;;;22.00;99.90;;;;;;5032681;28;20442;-72
2023/06/10 03:48:11;;;;;;;13.35;10.68;;;22.00;99.90;;;;;;5056459;28;20049;-72
2023/06/10 03:50:37;;;;;;;11.68;10.48;;;22.00;99.90;;;;;;5031871;28;20026;-72
2023/06/10 03:53:03;;;;;;;11.27;9.73;;;22.00;99.90;;;;;;5031520;28;20057;-72
2023/06/10 03:55:29;;;;;;;11.73;10.18;;;21.90;99.90;;;;;;5015199;28;20034;-72
2023/06/10 03:57:55;;;;;;;11.50;10.20;;;21.90;99.90;;;;;;5031897;28;20485;-72
2023/06/10 04:00:21;;;;;;;11.90;10.73;;;21.90;99.90;;;;;;5032131;28;20037;-72
2023/06/10 04:02:51;;;;;;;13.02;10.55;;;21.90;99.90;;;;;;5032055;28;20497;-72
2023/06/10 04:05:18;;;;;;;13.65;10.68;;;21.90;99.90;;;;;;5031922;28;20025;-72
2023/06/10 04:07:44;;;;;;;15.10;10.15;;;21.90;99.90;;;;;;5015770;28;20037;-72
2023/06/10 04:10:11;;;;;;;11.50;10.15;;;21.90;99.90;;;;;;5031336;28;20025;-72
2023/06/10 04:12:37;;;;;;;11.13;9.73;;;21.90;99.90;;;;;;5031784;28;20041;-72
2023/06/10 04:15:04;;;;;;;12.27;10.93;;;21.90;99.90;;;;;;5030952;28;20033;-72
2023/06/10 04:17:30;;;;;;;13.70;11.10;;;21.90;99.90;;;;;;5031305;28;20033;-72
2023/06/10 04:19:57;;;;;;;12.93;10.30;;;21.90;99.90;;;;;;5031578;28;20037;-72
2023/06/10 04:22:24;;;;;;;14.43;10.70;;;21.90;99.90;;;;;;5032471;28;20030;-72
2023/06/10 04:24:50;;;;;;;14.02;11.15;;;21.90;99.90;;;;;;5030957;28;20037;-72
2023/06/10 04:27:16;;;;;;;13.38;10.23;;;21.80;99.90;;;;;;5032466;28;20025;-72
2023/06/10 04:29:42;;;;;;;12.43;11.13;;;21.80;99.90;;;;;;5031161;28;20030;-72
2023/06/10 04:32:08;;;;;;;11.23;9.50;;;21.90;99.90;;;;;;5031818;28;20033;-72
2023/06/10 04:34:34;;;;;;;12.30;9.32;;;21.70;99.90;;;;;;5031640;28;20493;-72
2023/06/10 04:37:01;;;;;;;11.48;8.98;;;21.50;99.90;;;;;;5031029;28;20037;-72
2023/06/10 04:39:27;;;;;;;15.07;10.07;;;21.50;99.90;;;;;;5031291;28;20454;-72
2023/06/10 04:41:53;;;;;;;15.98;10.38;;;21.50;99.90;;;;;;5031073;28;20033;-72
2023/06/10 04:44:19;;;;;;;13.02;11.25;;;21.60;99.90;;;;;;5032199;28;20370;-72
2023/06/10 04:46:45;;;;;;;11.90;10.23;;;21.60;99.90;;;;;;5046466;28;20045;-72
2023/06/10 04:49:14;;;;;;;13.10;10.93;;;21.70;99.90;;;;;;5050974;28;20389;-72
2023/06/10 04:51:40;;;;;;;11.93;10.52;;;21.70;99.90;;;;;;5071250;28;20037;-72
2023/06/10 04:54:06;;;;;;;12.23;10.85;;;21.80;99.90;;;;;;5047918;28;20037;-72
2023/06/10 04:56:32;;;;;;;15.93;11.85;;;21.80;99.90;;;;;;5032133;28;20073;-72
2023/06/10 04:58:59;;;;;;;12.13;10.10;;;21.80;99.90;;;;;;5014374;28;20625;-72
2023/06/10 05:01:25;;;;;;;16.80;12.18;;;21.80;99.90;;;;;;5031310;28;20101;-72
2023/06/10 05:03:51;;;;;;;14.88;11.30;;;21.90;99.90;;;;;;5047423;28;20037;-72
2023/06/10 05:06:17;;;;;;;16.80;12.18;;;21.90;99.90;;;;;;5030902;28;20033;-72
2023/06/10 05:08:43;;;;;;;14.30;12.15;;;22.00;99.90;;;;;;5032336;28;20382;-72
2023/06/10 05:11:09;;;;;;;14.48;12.50;;;21.90;99.90;;;;;;5030570;28;20030;-72
2023/06/10 05:13:36;;;;;;;14.88;12.98;;;21.90;99.90;;;;;;5047028;28;20053;-72
2023/06/10 05:16:02;;;;;;;15.55;12.98;;;21.90;99.90;;;;;;5031396;28;20044;-72
2023/06/10 05:18:28;;;;;;;16.58;12.63;;;21.90;99.90;;;;;;5032009;28;20029;-73
2023/06/10 05:20:54;;;;;;;17.75;12.50;;;22.00;99.90;;;;;;5030617;28;20029;-72
2023/06/10 05:23:20;;;;;;;14.93;13.38;;;22.00;99.90;;;;;;5032051;28;20037;-72
2023/06/10 05:25:47;;;;;;;18.60;13.23;;;22.10;99.90;;;;;;5026812;28;20045;-72
2023/06/10 05:28:13;;;;;;;13.57;12.10;;;22.10;99.90;;;;;;5011954;28;20045;-72
2023/06/10 05:30:40;;;;;;;18.65;13.40;;;22.10;99.90;;;;;;5015761;28;20036;-73
2023/06/10 05:33:06;;;;;;;17.30;13.07;;;22.10;99.90;;;;;;5031950;28;20045;-73
2023/06/10 05:35:32;;;;;;;14.63;13.02;;;22.00;99.90;;;;;;5031522;28;20030;-73
2023/06/10 05:37:58;;;;;;;15.68;13.82;;;21.80;99.90;;;;;;5030538;28;20386;-73
2023/06/10 05:40:24;;;;;;;16.50;13.48;;;21.80;99.90;;;;;;5031603;28;20029;-73
2023/06/10 05:42:50;;;;;;;19.95;14.70;;;21.90;99.90;;;;;;5031459;28;20390;-72
2023/06/10 05:45:16;;;;;;;15.85;14.23;;;22.00;99.90;;;;;;5030024;28;20026;-73
2023/06/10 05:47:42;;;;;;;15.82;14.23;;;22.10;99.90;;;;;;5037935;28;20056;-73
2023/06/10 05:50:09;;;;;;;18.25;14.55;;;22.20;99.90;;;;;;5050050;28;20482;-72
2023/06/10 05:52:35;;;;;;;16.42;13.77;;;22.30;99.90;;;;;;5031873;28;20049;-73
2023/06/10 05:55:03;;;;;;;15.68;13.15;;;22.40;99.90;;;;;;5030470;28;20037;-73
2023/06/10 05:57:29;;;;;;;14.38;12.95;;;22.50;99.90;;;;;;5012710;28;20041;-73
2023/06/10 05:59:55;;;;;;;15.40;13.90;;;22.60;99.90;;;;;;5014366;28;20037;-73
2023/06/10 06:02:21;;;;;;;18.30;14.02;;;22.70;99.90;;;;;;5030989;28;20475;-72
2023/06/10 06:04:47;;;;;;;16.60;14.10;;;22.80;99.90;;;;;;5031816;28;20022;-73
2023/06/10 06:07:13;;;;;;;15.48;13.88;;;22.80;99.90;;;;;;5031474;28;20056;-73
2023/06/10 06:09:39;;;;;;;15.85;14.05;;;22.80;99.90;;;;;;5031605;28;20021;-73
2023/06/10 06:12:09;;;;;;;17.45;13.93;;;22.90;99.90;;;;;;5029769;28;20045;-72
2023/06/10 06:14:37;;;;;;;17.50;14.38;;;22.80;99.90;;;;;;5035047;28;20040;-73
2023/06/10 06:17:04;;;;;;;18.42;15.25;;;22.90;99.90;;;;;;5033304;28;20037;-73
2023/06/10 06:19:30;;;;;;;17.52;12.80;;;22.90;99.90;;;;;;5035086;28;20501;-72
2023/06/10 06:21:56;;;;;;;14.07;12.40;;;22.90;99.90;;;;;;5034748;28;20037;-73
2023/06/10 06:24:22;;;;;;;15.80;12.95;;;22.90;99.90;;;;;;5034705;28;20386;-73
2023/06/10 06:26:48;;;;;;;17.77;13.18;;;22.90;99.90;;;;;;5034633;28;20041;-73
2023/06/10 06:29:14;;;;;;;14.00;12.60;;;22.90;99.90;;;;;;5034995;28;20402;-73
2023/06/10 06:31:40;;;;;;;16.02;11.57;;;22.90;99.90;;;;;;5034130;28;20045;-73
2023/06/10 06:34:06;;;;;;;14.82;11.27;;;23.00;99.90;;;;;;5066857;28;20038;-73
2023/06/10 06:36:32;;;;;;;14.13;12.60;;;23.00;99.90;;;;;;5034374;28;20036;-73
2023/06/10 06:38:59;;;;;;;13.10;11.45;;;23.10;99.90;;;;;;5034414;28;20462;-73
2023/06/10 06:41:28;;;;;;;15.15;10.77;;;23.20;99.90;;;;;;5034356;28;20038;-73
2023/06/10 06:43:54;;;;;;;13.98;10.93;;;23.30;99.90;;;;;;5034746;28;20033;-73
2023/06/10 06:46:22;;;;;;;13.50;10.10;;;23.40;99.90;;;;;;5033637;28;20482;-72
2023/06/10 06:48:48;;;;;;;14.02;11.48;;;23.50;99.90;;;;;;5049977;28;20033;-73
2023/06/10 06:51:14;;;;;;;16.73;11.40;;;23.60;99.90;;;;;;5044490;28;20033;-73
2023/06/10 06:53:45;;;;;;;14.38;10.43;;;23.70;99.90;;;;;;5032906;28;20048;-73
2023/06/10 06:56:11;;;;;;;;;;;23.80;99.90;;;;;;5017954;28;20041;-73
2023/06/10 06:58:37;;;;;;;15.52;10.93;;;24.00;99.90;;;;;;5016508;28;20373;-73
2023/06/10 07:01:03;;;;;;;13.70;10.18;;;24.10;99.90;;;;;;5015457;28;20037;-73
2023/06/10 07:03:29;;;;;;;15.77;11.15;;;24.10;99.90;;;;;;5016660;28;20030;-73
2023/06/10 07:05:56;;;;;;;12.10;10.05;;;24.30;99.90;;;;;;5032955;28;20038;-73
2023/06/10 07:08:22;;;;;;;15.40;10.27;;;24.40;99.90;;;;;;5032756;28;20092;-73
2023/06/10 07:10:49;;;;;;;10.88;9.73;;;24.50;99.90;;;;;;5032747;28;20037;-73
2023/06/10 07:13:15;;;;;;;12.07;9.82;;;24.50;99.90;;;;;;5034171;28;20117;-73
2023/06/10 07:15:41;;;;;;;18.30;10.25;;;24.60;99.90;;;;;;5032167;28;20402;-73
2023/06/10 07:18:07;;;;;;;15.60;9.98;;;24.70;99.90;;;;;;5048883;28;20048;-73
2023/06/10 07:20:33;;;;;;;12.38;9.38;;;24.60;99.90;;;;;;5032478;28;20025;-73
2023/06/10 07:22:59;;;;;;;16.63;10.18;;;24.60;99.90;;;;;;5033387;28;20040;-73
2023/06/10 07:25:25;;;;;;;13.30;10.07;;;24.60;99.90;;;;;;5065380;28;20026;-73
2023/06/10 07:27:51;;;;;;;12.77;9.77;;;24.70;99.90;;;;;;5032667;28;20037;-73
2023/06/10 07:30:17;;;;;;;13.00;9.30;;;24.80;99.90;;;;;;5032944;28;20025;-73
2023/06/10 07:32:43;;;;;;;11.45;9.70;;;24.80;99.90;;;;;;5032604;28;20021;-73
2023/06/10 07:35:11;;;;;;;12.02;9.70;;;24.80;99.90;;;;;;5032383;28;20037;-73
2023/06/10 07:37:37;;;;;;;14.98;10.90;;;24.80;99.90;;;;;;4999456;28;20033;-73
2023/06/10 07:40:03;;;;;;;12.90;10.82;;;24.90;99.90;;;;;;5032529;28;20034;-73
2023/06/10 07:42:30;;;;;;;11.30;9.45;;;24.90;99.90;;;;;;5015219;28;20037;-73
2023/06/10 07:44:56;;;;;;;12.95;8.85;;;24.80;99.90;;;;;;5033518;28;20467;-73
2023/06/10 07:47:23;;;;;;;10.02;8.85;;;24.70;99.90;;;;;;5019532;28;20045;-73
2023/06/10 07:49:49;;;;;;;13.45;8.90;;;24.50;99.90;;;;;;5052035;28;20032;-73
2023/06/10 07:52:15;;;;;;;11.43;8.20;;;24.50;99.90;;;;;;5035306;28;20037;-73
2023/06/10 07:54:41;;;;;;;9.77;8.60;;;24.40;99.90;;;;;;5033291;28;20395;-73
2023/06/10 07:57:07;;;;;;;12.23;9.27;;;24.40;99.90;;;;;;5032933;28;20044;-73
2023/06/10 07:59:33;;;;;;;12.57;9.38;;;24.40;99.90;;;;;;5033098;28;20029;-73
2023/06/10 08:01:59;;;;;;;11.32;9.38;;;24.40;99.90;;;;;;5030942;28;20403;-73
2023/06/10 08:04:25;;;;;;;12.43;9.20;;;24.40;99.90;;;;;;5031811;28;20029;-74
2023/06/10 08:06:52;;;;;;;11.15;9.15;;;24.60;99.90;;;;;;5031141;28;20390;-73
2023/06/10 08:09:18;;;;;;;16.63;9.52;;;24.70;99.90;;;;;;5033254;28;20034;-73
2023/06/10 08:11:46;;;;;;;13.95;10.00;;;24.90;99.90;;;;;;5032698;28;20026;-73
2023/06/10 08:14:12;;;;;;;11.95;10.70;;;25.00;99.90;;;;;;5031605;28;20520;-74
2023/06/10 08:16:38;;;;;;;13.77;12.18;;;25.10;99.90;;;;;;5031006;28;20055;-74
2023/06/10 08:19:04;;;;;;;12.40;11.10;;;25.30;99.90;;;;;;5032897;28;20568;-73
2023/06/10 08:21:31;;;;;;;15.57;11.02;;;25.20;99.90;;;;;;5032309;28;20497;-73
2023/06/10 08:23:57;;;;;;;13.55;12.15;;;25.30;99.90;;;;;;5048057;28;20390;-73
2023/06/10 08:26:23;;;;;;;15.27;10.73;;;25.10;99.90;;;;;;5032272;28;20040;-73
2023/06/10 08:28:50;;;;;;;13.30;11.82;;;25.10;99.90;;;;;;5033126;28;20033;-73
2023/06/10 08:31:16;;;;;;;12.25;11.13;;;25.10;99.90;;;;;;5047289;28;20040;-73
2023/06/10 08:33:42;;;;;;;14.07;11.93;;;25.10;99.90;;;;;;5048008;28;20044;-72
2023/06/10 08:36:08;;;;;;;13.52;12.13;;;25.20;99.90;;;;;;5046540;28;20025;-73
2023/06/10 08:38:34;;;;;;;12.68;11.50;;;25.20;99.90;;;;;;5048097;28;20033;-73
2023/06/10 08:41:00;;;;;;;16.17;12.27;;;25.20;99.90;;;;;;5032194;28;20029;-73
2023/06/10 08:43:53;;;;;;;13.60;11.38;;;25.30;99.90;;;;;;5015039;28;20040;-73
2023/06/10 08:46:19;;;;;;;13.27;11.93;;;25.30;99.90;;;;;;5015512;28;20040;-73
2023/06/10 08:48:45;;;;;;;12.82;11.63;;;25.30;99.90;;;;;;5047440;28;20033;-73
2023/06/10 08:51:11;;;;;;;14.80;11.80;;;25.30;99.90;;;;;;5041958;28;20025;-73
2023/06/10 08:53:39;;;;;;;16.08;12.77;;;25.40;99.90;;;;;;5031259;28;20037;-73
2023/06/10 08:56:06;;;;;;;15.73;12.40;;;25.60;99.90;;;;;;5014663;28;20029;-73
2023/06/10 08:58:41;;;;;;;13.60;11.73;;;25.70;99.90;;;;;;5031134;28;20356;-73
2023/06/10 09:01:08;;;;;;;12.82;11.57;;;25.80;99.90;;;;;;5031569;28;20493;-73
2023/06/10 09:03:37;;;;;;;12.77;11.18;;;25.70;99.90;;;;;;5031061;28;20025;-73
2023/06/10 09:06:04;;;;;;;14.02;10.95;;;25.70;99.90;;;;;;5014184;28;20029;-73
2023/06/10 09:08:31;;;;;;;12.40;11.20;;;25.60;99.90;;;;;;5014717;28;20037;-73
2023/06/10 09:10:57;;;;;;;13.13;10.77;;;25.50;99.90;;;;;;5014340;28;20025;-73
2023/06/10 09:13:23;;;;;;;12.40;11.13;;;25.40;99.90;;;;;;5014712;28;20037;-73
2023/06/10 09:15:51;;;;;;;13.35;10.77;;;25.20;99.90;;;;;;5031504;28;20053;-73
2023/06/10 09:18:17;;;;;;;13.45;12.25;;;25.20;99.90;;;;;;5030686;28;20029;-73
2023/06/10 09:20:43;;;;;;;14.80;13.50;;;25.40;99.90;;;;;;5030702;28;20033;-74
2023/06/10 09:23:09;;;;;;;13.60;12.43;;;25.40;99.90;;;;;;5047174;28;20040;-73
2023/06/10 09:25:37;;;;;;;12.45;11.25;;;25.40;99.90;;;;;;5047092;28;20033;-73
2023/06/10 09:28:03;;;;;;;13.98;10.73;;;25.70;99.90;;;;;;5014957;28;20033;-74
2023/06/10 09:30:33;;;;;;;12.57;9.98;;;25.90;99.90;;;;;;5030023;28;20038;-73
2023/06/10 09:33:09;;;;;;;13.88;9.98;;;26.10;99.90;;;;;;5013975;28;20048;-73
2023/06/10 09:35:35;;;;;;;11.05;9.70;;;26.00;99.90;;;;;;5030497;28;20049;-73
2023/06/10 09:38:02;;;;;;;12.45;9.95;;;26.00;99.90;;;;;;5030867;28;20033;-73
2023/06/10 09:40:28;;;;;;;11.85;8.45;;;26.00;99.90;;;;;;5046867;28;20455;-73
2023/06/10 09:42:56;;;;;;;14.27;9.77;;;26.10;99.90;;;;;;5030748;28;20029;-74
2023/06/10 09:45:23;;;;;;;11.07;9.90;;;26.30;99.90;;;;;;5030257;28;20037;-73
2023/06/10 09:47:53;;;;;;;11.98;10.70;;;26.30;99.90;;;;;;5041132;28;20045;-74
2023/06/10 09:50:19;;;;;;;11.07;9.95;;;26.20;99.90;;;;;;5052933;28;20029;-74
2023/06/10 09:52:46;;;;;;;13.63;11.15;;;26.10;99.90;;;;;;5034181;28;20406;-73
2023/06/10 09:55:12;;;;;;;12.20;11.10;;;25.90;99.90;;;;;;5034113;28;20042;-74
2023/06/10 09:57:39;;;;;;;11.73;9.55;;;25.80;99.90;;;;;;5035560;28;20037;-73
2023/06/10 10:00:10;;;;;;;10.55;8.73;;;25.90;99.90;;;;;;5017455;28;20033;-74
2023/06/10 10:02:48;;;;;;;11.00;8.57;;;26.10;99.90;;;;;;5035155;28;20040;-73
2023/06/10 10:05:15;;;;;;;10.23;9.27;;;26.10;99.90;;;;;;5035239;28;20029;-74
2023/06/10 10:07:42;;;;;;;11.93;8.10;;;26.20;99.90;;;;;;5034341;28;20037;-73
2023/06/10 10:10:09;;;;;;;12.27;10.40;;;26.20;99.90;;;;;;5034211;28;20029;-73
2023/06/10 10:12:36;;;;;;;11.20;10.00;;;26.20;99.90;;;;;;5035088;28;20488;-73
2023/06/10 10:15:02;;;;;;;12.45;10.18;;;26.20;99.90;;;;;;5050129;28;20045;-74
2023/06/10 10:17:28;;;;;;;9.82;8.90;;;26.40;99.90;;;;;;5033610;28;20033;-73
2023/06/10 10:19:58;;;;;;;10.52;9.52;;;26.30;99.90;;;;;;5034062;28;20038;-74
2023/06/10 10:22:26;;;;;;;10.05;9.00;;;26.30;99.90;;;;;;5017476;28;20028;-73
2023/06/10 10:24:55;;;;;;;11.40;10.23;;;26.40;99.90;;;;;;5033327;28;20052;-73
2023/06/10 10:27:35;;;;;;;13.80;12.45;;;26.60;99.90;;;;;;5016933;28;20049;-73
2023/06/10 10:30:04;;;;;;;;;;;26.70;99.90;;;;;;5034406;28;20025;-73
2023/06/10 10:32:35;;;;;;;13.02;11.25;;;26.70;99.90;;;;;;5033509;28;19920;-73
2023/06/10 10:35:01;;;;;;;9.80;8.85;;;26.80;99.90;;;;;;5017256;28;20060;-73
2023/06/10 10:37:27;;;;;;;11.20;10.20;;;26.90;99.90;;;;;;5032694;28;20037;-73
2023/06/10 10:39:53;;;;;;;12.35;10.68;;;27.00;99.90;;;;;;5034804;28;20040;-74
2023/06/10 10:42:19;;;;;;;12.10;11.15;;;27.00;99.90;;;;;;5033133;28;20037;-74
2023/06/10 10:44:45;;;;;;;11.70;10.40;;;27.00;99.90;;;;;;5033472;28;20030;-73
2023/06/10 10:47:11;;;;;;;11.85;10.70;;;27.00;99.90;;;;;;5018889;28;20509;-73
2023/06/10 10:49:38;;;;;;;9.60;8.57;;;26.90;99.90;;;;;;5053216;28;20040;-73
2023/06/10 10:52:06;;;;;;;10.52;9.40;;;27.00;99.90;;;;;;5053333;28;20038;-73
2023/06/10 10:54:36;;;;;;;10.88;10.05;;;27.10;99.90;;;;;;5033188;28;20049;-73
2023/06/10 10:57:20;;;;;;;9.10;8.25;;;27.30;99.90;;;;;;5034142;28;20034;-74
2023/06/10 10:59:49;;;;;;;7.68;6.88;;;27.50;99.90;;;;;;5013517;28;20030;-73
2023/06/10 11:02:18;;;;;;;6.75;6.03;;;27.70;99.90;;;;;;5031053;28;20040;-73
2023/06/10 11:04:48;;;;;;;7.72;6.53;;;27.90;99.90;;;;;;5049802;28;20026;-74
2023/06/10 11:07:17;;;;;;;6.90;6.18;;;28.10;99.90;;;;;;5065924;28;20045;-74
2023/06/10 11:10:00;;;;;;;8.05;7.25;;;28.10;99.90;;;;;;5034262;28;20034;-73
2023/06/10 11:12:47;;;;;;;9.02;8.20;;;28.00;99.90;;;;;;5049113;28;20029;-74
2023/06/10 11:15:13;;;;;;;8.00;7.20;;;28.10;99.90;;;;;;5045445;28;20053;-74
2023/06/10 11:18:15;;;;;;;6.50;5.78;;;28.00;99.90;;;;;;5016263;28;20038;-73
2023/06/10 11:20:50;;;;;;;7.43;6.72;;;28.10;99.90;;;;;;5015849;28;20044;-74
2023/06/10 11:23:25;;;;;;;6.28;5.70;;;28.20;99.90;;;;;;5034106;28;20387;-74
2023/06/10 11:25:51;;;;;;;6.60;6.00;;;28.30;99.90;;;;;;5033513;28;20029;-74
2023/06/10 11:28:19;;;;;;;6.53;5.93;;;28.40;99.90;;;;;;5033841;28;20034;-73
2023/06/10 11:30:45;;;;;;;6.55;5.80;;;28.40;99.90;;;;;;5031441;28;20029;-73
2023/06/10 11:33:17;;;;;;;6.40;5.90;;;28.40;99.90;;;;;;5032635;28;20041;-73
2023/06/10 11:35:43;;;;;;;9.00;8.35;;;28.30;99.90;;;;;;5033336;28;20045;-73
2023/06/10 11:38:10;;;;;;;6.75;6.15;;;28.30;99.90;;;;;;5032374;28;20025;-73
2023/06/10 11:40:39;;;;;;;9.45;7.05;;;28.40;99.90;;;;;;5032197;28;20032;-73
2023/06/10 11:43:05;;;;;;;6.85;6.15;;;28.40;99.90;;;;;;5032448;28;20120;-73
2023/06/10 11:45:31;;;;;;;7.40;6.70;;;28.40;99.90;;;;;;5031242;28;20419;-73
2023/06/10 11:47:58;;;;;;;6.70;6.05;;;28.20;99.90;;;;;;5042793;28;20049;-73
2023/06/10 11:50:31;;;;;;;6.50;5.90;;;28.10;99.90;;;;;;5049808;28;20021;-74
2023/06/10 11:52:58;;;;;;;9.38;5.53;;;28.20;99.90;;;;;;5032764;28;20030;-74
2023/06/10 11:55:45;;;;;;;8.68;7.30;;;28.30;99.90;;;;;;5031866;28;20382;-73
2023/06/10 11:58:19;;;;;;;10.68;9.65;;;28.20;99.90;;;;;;5031693;28;20022;-73
2023/06/10 12:00:53;;;;;;;10.75;9.75;;;28.20;99.90;;;;;;5031885;28;20045;-72
2023/06/10 12:03:19;;;;;;;8.77;7.43;;;28.20;99.90;;;;;;5032700;28;20355;-74
2023/06/10 12:06:04;;;;;;;8.60;7.38;;;28.30;99.90;;;;;;5031691;28;20037;-73
2023/06/10 12:08:30;;;;;;;9.30;8.40;;;28.40;99.90;;;;;;5032086;28;20060;-73
2023/06/10 12:10:57;;;;;;;10.57;7.80;;;28.40;99.90;;;;;;5031581;28;20029;-73
2023/06/10 12:13:26;;;;;;;10.23;9.32;;;28.20;99.90;;;;;;5031528;28;20025;-73
2023/06/10 12:15:52;;;;;;;12.93;12.02;;;28.20;99.90;;;;;;5031197;28;20049;-73
2023/06/10 12:18:22;;;;;;;8.65;7.28;;;28.40;99.90;;;;;;5015247;28;20029;-74
2023/06/10 12:20:49;;;;;;;6.55;5.53;;;28.60;99.90;;;;;;5014846;28;20044;-73
2023/06/10 12:23:15;;;;;;;6.90;6.32;;;28.70;99.90;;;;;;5031728;28;20029;-74
2023/06/10 12:25:52;;;;;;;7.93;7.13;;;28.60;99.90;;;;;;5031114;28;20037;-73
2023/06/10 12:28:22;;;;;;;7.18;6.45;;;28.50;99.90;;;;;;5015008;28;20034;-73
2023/06/10 12:30:48;;;;;;;8.65;7.85;;;28.40;99.90;;;;;;5030774;28;20033;-73
2023/06/10 12:33:21;;;;;;;9.38;8.57;;;28.40;99.90;;;;;;5031553;28;20033;-74
2023/06/10 12:35:51;;;;;;;6.75;6.15;;;28.30;99.90;;;;;;5031331;28;20048;-73
2023/06/10 12:38:24;;;;;;;6.80;6.30;;;28.40;99.90;;;;;;5031582;28;20033;-74